createdAt,value
2018-04-17T00:02:38.591Z,92.03
2018-04-17T00:07:41.131Z,108.70
2018-04-17T00:12:43.662Z,96.80
2018-04-17T00:17:47.610Z,92.30
2018-04-17T00:22:50.233Z,94.03
2018-04-17T00:27:52.715Z,93.37
2018-04-17T00:32:57.186Z,82.87
2018-04-17T00:37:59.697Z,90.77
2018-04-17T00:43:02.203Z,94.03
2018-04-17T00:48:06.225Z,99.47
2018-04-17T00:53:23.223Z,104.37
2018-04-17T00:58:25.724Z,96.20
2018-04-17T01:03:28.244Z,96.50
2018-04-17T01:08:30.756Z,102.80
2018-04-17T01:13:33.225Z,97.43
2018-04-17T01:18:43.069Z,102.23
2018-04-17T01:23:45.795Z,106.37
2018-04-17T01:28:48.305Z,104.07
2018-04-17T01:33:51.300Z,103.13
2018-04-17T01:38:53.855Z,105.53
2018-04-17T01:43:56.389Z,122.80
2018-04-17T01:48:58.866Z,112.00
2018-04-17T01:54:01.360Z,122.20
2018-04-17T01:59:04.094Z,134.10
2018-04-17T02:04:06.623Z,125.27
2018-04-17T02:09:09.341Z,122.60
2018-04-17T02:14:11.842Z,132.83
2018-04-17T02:19:14.329Z,160.27
2018-04-17T02:24:16.927Z,166.43
2018-04-17T02:29:19.428Z,161.10
2018-04-17T02:34:21.926Z,187.60
2018-04-17T02:39:24.429Z,175.67
2018-04-17T02:44:27.010Z,129.87
2018-04-17T02:49:29.464Z,130.73
2018-04-17T02:54:31.943Z,116.43
2018-04-17T02:59:34.664Z,115.93
2018-04-17T03:04:37.342Z,119.13
2018-04-17T03:09:39.973Z,103.73
2018-04-17T03:14:47.746Z,110.90
2018-04-17T03:19:52.578Z,101.50
2018-04-17T03:24:55.089Z,111.10
2018-04-17T03:29:57.586Z,116.70
2018-04-17T03:35:00.197Z,102.97
2018-04-17T03:40:02.700Z,115.70
2018-04-17T03:45:06.465Z,136.23
2018-04-17T03:50:09.051Z,120.37
2018-04-17T03:55:11.633Z,104.50
2018-04-17T04:00:14.414Z,99.20
2018-04-17T04:05:16.903Z,91.07
2018-04-17T04:10:19.351Z,81.03
2018-04-17T04:15:21.846Z,95.23
2018-04-17T04:20:36.653Z,82.97
2018-04-17T04:25:54.892Z,93.60
2018-04-17T04:31:01.341Z,101.53
2018-04-17T04:36:06.588Z,95.50
2018-04-17T04:41:09.135Z,86.33
2018-04-17T04:46:12.278Z,89.67
2018-04-17T04:51:14.743Z,100.03
2018-04-17T04:56:17.210Z,96.13
2018-04-17T05:01:19.800Z,120.63
2018-04-17T05:06:22.468Z,159.50
2018-04-17T05:11:24.948Z,193.77
2018-04-17T05:16:27.417Z,331.57
2018-04-17T05:21:29.902Z,99.23
2018-04-17T05:26:32.391Z,92.90
2018-04-17T05:31:34.986Z,84.67
2018-04-17T05:36:37.521Z,100.80
2018-04-17T05:41:40.027Z,169.90
2018-04-17T05:46:42.503Z,133.23
2018-04-17T05:51:44.981Z,84.90
2018-04-17T05:56:47.460Z,96.63
2018-04-17T06:01:49.958Z,69.70
2018-04-17T06:06:52.651Z,63.17
2018-04-17T06:11:55.141Z,59.63
2018-04-17T06:16:57.717Z,62.67
2018-04-17T06:22:00.397Z,64.50
2018-04-17T06:27:02.874Z,51.43
2018-04-17T06:32:05.566Z,50.97
2018-04-17T06:37:08.085Z,53.90
2018-04-17T06:42:10.772Z,51.13
2018-04-17T06:47:13.233Z,46.07
2018-04-17T06:52:15.728Z,47.03
2018-04-17T06:57:18.205Z,45.57
2018-04-17T07:02:20.687Z,44.87
2018-04-17T07:07:23.166Z,44.70
2018-04-17T07:12:25.641Z,42.07
2018-04-17T07:17:28.237Z,40.40
2018-04-17T07:22:30.796Z,43.70
2018-04-17T07:27:33.637Z,42.23
2018-04-17T07:32:36.143Z,40.70
2018-04-17T07:37:38.628Z,40.60
2018-04-17T07:42:41.126Z,37.37
2018-04-17T07:53:22.754Z,31.53
2018-04-17T07:58:25.224Z,31.77
2018-04-17T08:03:27.726Z,34.47
2018-04-17T08:08:30.202Z,25.50
2018-04-17T08:13:32.678Z,24.90
2018-04-17T08:18:35.171Z,21.07
2018-04-17T08:23:37.821Z,17.60
2018-04-17T08:28:40.288Z,16.87
2018-04-17T08:33:42.771Z,17.23
2018-04-17T08:38:45.248Z,15.67
2018-04-17T08:43:47.700Z,11.40
2018-04-17T08:48:50.235Z,9.70
2018-04-17T08:53:52.679Z,10.13
2018-04-17T08:58:55.162Z,11.97
2018-04-17T09:03:57.618Z,10.23
2018-04-17T09:09:00.119Z,10.23
2018-04-17T09:14:02.591Z,10.73
2018-04-17T09:19:05.055Z,7.17
2018-04-17T09:24:07.529Z,6.63
2018-04-17T09:29:09.994Z,4.70
2018-04-17T09:34:12.526Z,6.80
2018-04-17T09:39:15.106Z,7.03
2018-04-17T09:44:17.651Z,6.80
2018-04-17T09:49:20.104Z,6.70
2018-04-17T09:54:22.569Z,5.20
2018-04-17T09:59:25.066Z,7.60
2018-04-17T10:04:27.557Z,8.47
2018-04-17T10:09:30.067Z,8.07
2018-04-17T10:14:32.551Z,7.83
2018-04-17T10:19:35.016Z,7.87
2018-04-17T10:24:37.562Z,7.27
2018-04-17T10:29:40.036Z,6.90
2018-04-17T10:34:42.520Z,7.97
2018-04-17T10:39:44.991Z,10.50
2018-04-17T10:44:47.468Z,9.57
2018-04-17T10:49:49.930Z,9.60
2018-04-17T10:54:52.432Z,9.23
2018-04-17T10:59:54.893Z,8.70
2018-04-17T11:04:57.394Z,9.87
2018-04-17T11:09:59.860Z,13.47
2018-04-17T11:15:02.351Z,8.93
2018-04-17T11:20:04.822Z,10.47
2018-04-17T11:25:07.431Z,9.93
2018-04-17T11:30:09.883Z,7.80
2018-04-17T11:35:12.349Z,9.30
2018-04-17T11:40:14.817Z,9.53
2018-04-17T11:45:17.304Z,10.63
2018-04-17T11:50:19.766Z,10.77
2018-04-17T11:55:22.262Z,10.33
2018-04-17T12:00:24.820Z,10.83
2018-04-17T12:05:27.321Z,11.03
2018-04-17T12:10:29.797Z,10.50
2018-04-17T12:15:32.292Z,8.73
2018-04-17T12:20:34.764Z,7.23
2018-04-17T12:25:37.233Z,8.17
2018-04-17T12:30:39.719Z,7.97
2018-04-17T12:35:42.271Z,7.00
2018-04-17T12:40:44.811Z,7.83
2018-04-17T12:45:47.276Z,7.60
2018-04-17T12:50:49.758Z,10.27
2018-04-17T12:55:52.307Z,8.27
2018-04-17T13:00:54.837Z,12.40
2018-04-17T13:05:57.326Z,7.87
2018-04-17T13:10:59.778Z,7.77
2018-04-17T13:16:02.248Z,7.17
2018-04-17T13:21:04.752Z,12.50
2018-04-17T13:26:07.269Z,9.60
2018-04-17T13:31:09.752Z,8.27
2018-04-17T13:36:12.247Z,7.43
2018-04-17T13:41:14.719Z,6.77
2018-04-17T13:46:17.215Z,9.30
2018-04-17T13:51:19.792Z,7.90
2018-04-17T13:56:22.284Z,5.53
2018-04-17T14:01:24.753Z,8.03
2018-04-17T14:06:27.199Z,7.93
2018-04-17T14:11:29.659Z,7.50
2018-04-17T14:16:32.118Z,5.70
2018-04-17T14:21:34.594Z,7.23
2018-04-17T14:26:37.089Z,5.77
2018-04-17T14:31:39.575Z,6.03
2018-04-17T14:36:42.046Z,6.63
2018-04-17T14:41:44.527Z,7.60
2018-04-17T14:46:47.015Z,10.60
2018-04-17T14:51:49.486Z,11.27
2018-04-17T14:56:51.932Z,6.77
2018-04-17T15:01:54.501Z,9.83
2018-04-17T15:06:56.958Z,7.33
2018-04-17T15:11:59.421Z,7.73
2018-04-17T15:17:01.906Z,5.43
2018-04-17T15:22:04.462Z,8.10
2018-04-17T15:27:06.942Z,4.93
2018-04-17T15:32:09.450Z,9.13
2018-04-17T15:37:11.958Z,7.33
2018-04-17T15:42:14.451Z,7.50
2018-04-17T15:47:16.930Z,6.17
2018-04-17T15:52:19.406Z,6.47
2018-04-17T15:57:21.878Z,7.67
2018-04-17T16:02:24.324Z,7.50
2018-04-17T16:07:26.817Z,7.10
2018-04-17T16:12:29.307Z,4.97
2018-04-17T16:17:31.777Z,6.43
2018-04-17T16:22:34.289Z,9.47
2018-04-17T16:27:36.837Z,7.13
2018-04-17T16:32:39.329Z,9.77
2018-04-17T16:37:41.785Z,7.80
2018-04-17T16:42:44.292Z,6.17
2018-04-17T16:47:46.752Z,7.10
2018-04-17T16:52:49.240Z,8.47
2018-04-17T16:57:51.779Z,7.73
2018-04-17T17:02:54.240Z,5.70
2018-04-17T17:07:56.730Z,5.43
2018-04-17T17:12:59.215Z,7.93
2018-04-17T17:18:01.690Z,11.37
2018-04-17T17:28:30.008Z,10.27
2018-04-17T17:33:32.508Z,9.23
2018-04-17T17:38:34.994Z,6.90
2018-04-17T17:43:37.530Z,7.43
2018-04-17T17:48:40.967Z,7.00
2018-04-17T17:53:43.443Z,8.90
2018-04-17T17:58:45.986Z,9.03
2018-04-17T18:03:48.485Z,7.17
2018-04-17T18:08:51.020Z,9.27
2018-04-17T18:13:53.508Z,8.93
2018-04-17T18:18:57.126Z,6.73
2018-04-17T18:24:04.730Z,8.27
2018-04-17T18:29:07.243Z,11.67
2018-04-17T18:34:09.792Z,6.57
2018-04-17T18:39:12.266Z,6.63
2018-04-17T18:44:17.029Z,8.93
2018-04-17T18:49:19.500Z,10.13
2018-04-17T18:54:21.976Z,8.63
2018-04-17T18:59:24.433Z,8.77
2018-04-17T19:04:26.885Z,6.37
2018-04-17T19:09:29.370Z,6.37
2018-04-17T19:14:33.662Z,6.57
2018-04-17T19:19:38.821Z,8.03
2018-04-17T19:24:42.514Z,5.83
2018-04-17T19:29:46.705Z,7.50
2018-04-17T19:34:49.273Z,11.37
2018-04-17T19:39:51.924Z,8.10
2018-04-17T19:44:54.444Z,7.00
2018-04-17T19:49:57.307Z,8.27
2018-04-17T19:54:59.968Z,6.97
2018-04-17T20:00:02.546Z,6.37
2018-04-17T20:05:05.242Z,9.77
2018-04-17T20:10:10.049Z,11.13
2018-04-17T20:15:17.425Z,8.73
2018-04-17T20:20:20.163Z,6.83
2018-04-17T20:25:23.067Z,6.37
2018-04-17T20:30:25.735Z,5.50
2018-04-17T20:35:29.567Z,8.20
2018-04-17T20:40:32.110Z,6.13
2018-04-17T20:45:34.596Z,8.17
2018-04-17T20:50:37.625Z,8.40
2018-04-17T20:55:40.170Z,10.57
2018-04-17T21:00:42.680Z,9.00
2018-04-17T21:05:45.370Z,8.47
2018-04-17T21:10:47.909Z,10.70
2018-04-17T21:15:50.699Z,8.10
2018-04-17T21:20:53.242Z,7.33
2018-04-17T21:25:56.856Z,6.90
2018-04-17T21:30:59.355Z,5.77
2018-04-17T21:36:01.849Z,11.50
2018-04-17T21:41:04.677Z,9.23
2018-04-17T21:46:07.264Z,10.20
2018-04-17T21:56:52.715Z,12.00
2018-04-17T22:07:42.436Z,13.53
2018-04-17T22:19:04.535Z,14.07
2018-04-17T22:24:32.055Z,10.40
2018-04-17T22:29:51.643Z,10.07
2018-04-17T22:34:55.351Z,12.93
2018-04-17T22:39:57.857Z,8.83
2018-04-17T22:45:17.413Z,8.63
2018-04-17T22:50:20.427Z,10.07
2018-04-17T22:55:22.898Z,7.63
2018-04-17T23:00:25.365Z,7.37
2018-04-17T23:05:27.831Z,8.17
2018-04-17T23:10:30.299Z,8.57
2018-04-17T23:15:32.762Z,11.93
2018-04-17T23:20:35.322Z,15.07
2018-04-17T23:25:37.851Z,8.47
2018-04-17T23:30:40.423Z,11.23
2018-04-17T23:35:42.945Z,7.80
2018-04-17T23:40:46.591Z,9.30
2018-04-17T23:45:49.170Z,11.33
2018-04-17T23:50:51.626Z,10.40
2018-04-17T23:55:54.096Z,16.37
